createdAt,value
2023-04-05T00:02:11.197Z,92.98
2023-04-05T00:04:42.877Z,92.87
2023-04-05T00:07:09.824Z,92.75
2023-04-05T00:09:36.924Z,92.82
2023-04-05T00:12:04.103Z,92.84
2023-04-05T00:14:50.702Z,92.59
2023-04-05T00:17:18.171Z,92.61
2023-04-05T00:20:07.937Z,92.83
2023-04-05T00:22:53.734Z,92.68
2023-04-05T00:25:22.217Z,92.83
2023-04-05T00:27:49.102Z,92.88
2023-04-05T00:30:21.378Z,92.91
2023-04-05T00:32:50.197Z,93.03
2023-04-05T00:35:17.798Z,92.91
2023-04-05T00:37:44.802Z,93.23
2023-04-05T00:40:12.216Z,93.23
2023-04-05T00:42:39.574Z,93.41
2023-04-05T00:45:09.129Z,93.76
2023-04-05T00:47:36.993Z,94.12
2023-04-05T00:50:04.122Z,94.10
2023-04-05T00:52:32.333Z,93.99
2023-04-05T00:54:59.592Z,94.11
2023-04-05T00:57:26.704Z,93.83
2023-04-05T00:59:53.734Z,94.18
2023-04-05T01:02:39.456Z,94.64
2023-04-05T01:05:19.727Z,94.34
2023-04-05T01:07:51.581Z,94.75
2023-04-05T01:10:22.626Z,94.82
2023-04-05T01:12:49.945Z,95.11
2023-04-05T01:15:19.172Z,95.24
2023-04-05T01:17:47.092Z,95.36
2023-04-05T01:20:15.265Z,95.74
2023-04-05T01:22:54.408Z,95.57
2023-04-05T01:25:53.025Z,95.48
2023-04-05T01:28:36.310Z,95.72
2023-04-05T01:31:18.298Z,95.79
2023-04-05T01:33:49.173Z,96.05
2023-04-05T01:36:43.108Z,96.29
2023-04-05T01:39:12.999Z,96.37
2023-04-05T01:41:44.174Z,96.63
2023-04-05T01:44:11.073Z,96.70
2023-04-05T01:46:38.248Z,96.93
2023-04-05T01:49:06.568Z,97.22
2023-04-05T01:51:33.515Z,97.39
2023-04-05T01:54:00.486Z,97.73
2023-04-05T01:56:27.527Z,98.14
2023-04-05T01:58:55.163Z,98.13
2023-04-05T02:01:22.322Z,98.02
2023-04-05T02:03:49.688Z,98.41
2023-04-05T02:06:16.758Z,98.39
2023-04-05T02:08:43.937Z,98.48
2023-04-05T02:11:11.305Z,99.04
2023-04-05T02:13:38.878Z,99.28
2023-04-05T02:16:06.305Z,99.55
2023-04-05T02:18:33.285Z,99.51
2023-04-05T02:21:08.617Z,99.43
2023-04-05T02:23:37.573Z,99.64
2023-04-05T02:26:04.602Z,99.73
2023-04-05T02:28:31.609Z,99.75
2023-04-05T02:30:58.534Z,99.63
2023-04-05T02:33:26.006Z,99.81
2023-04-05T02:35:54.009Z,99.70
2023-04-05T02:38:21.681Z,100.00
2023-04-05T02:40:49.377Z,100.00
2023-04-05T02:43:16.710Z,100.00
2023-04-05T02:45:46.295Z,100.00
2023-04-05T02:48:14.410Z,100.00
2023-04-05T02:50:41.853Z,100.00
2023-04-05T02:53:10.175Z,100.00
2023-04-05T02:55:42.333Z,100.00
2023-04-05T02:58:09.786Z,100.00
2023-04-05T03:00:42.396Z,100.00
2023-04-05T03:03:10.206Z,100.00
2023-04-05T03:05:43.468Z,100.00
2023-04-05T03:08:19.862Z,100.00
2023-04-05T03:10:58.288Z,100.00
2023-04-05T03:13:26.410Z,100.00
2023-04-05T03:15:55.325Z,100.00
2023-04-05T03:18:29.629Z,100.00
2023-04-05T03:21:04.643Z,100.00
2023-04-05T03:23:36.633Z,100.00
2023-04-05T03:26:05.183Z,100.00
2023-04-05T03:28:36.414Z,100.00
2023-04-05T03:31:06.447Z,99.68
2023-04-05T03:33:34.381Z,100.00
2023-04-05T03:36:02.510Z,99.61
2023-04-05T03:38:33.873Z,99.23
2023-04-05T03:41:27.457Z,99.16
2023-04-05T03:43:55.357Z,98.65
2023-04-05T03:46:23.579Z,98.35
2023-04-05T03:48:50.637Z,97.97
2023-04-05T03:51:19.076Z,97.65
2023-04-05T03:53:51.288Z,97.28
2023-04-05T03:56:18.979Z,97.08
2023-04-05T03:58:49.376Z,96.72
2023-04-05T04:01:19.470Z,96.47
2023-04-05T04:03:49.094Z,95.77
2023-04-05T04:06:20.005Z,95.19
2023-04-05T04:08:49.900Z,95.07
2023-04-05T04:11:16.975Z,94.75
2023-04-05T04:13:46.535Z,93.93
2023-04-05T04:16:26.073Z,93.27
2023-04-05T04:19:09.555Z,92.55
2023-04-05T04:21:56.153Z,91.83
2023-04-05T04:24:34.885Z,91.24
2023-04-05T04:27:22.170Z,90.61
2023-04-05T04:30:11.035Z,89.92
2023-04-05T04:33:09.984Z,89.09
2023-04-05T04:35:40.180Z,88.55
2023-04-05T04:38:26.782Z,88.05
2023-04-05T04:41:26.982Z,87.81
2023-04-05T04:44:31.418Z,87.04
2023-04-05T04:47:21.953Z,86.45
2023-04-05T04:50:13.099Z,86.17
2023-04-05T04:52:41.077Z,85.84
2023-04-05T04:55:16.639Z,85.48
2023-04-05T04:57:47.264Z,85.07
2023-04-05T05:00:18.290Z,84.56
2023-04-05T05:02:45.926Z,84.03
2023-04-05T05:05:16.295Z,83.55
2023-04-05T05:07:43.317Z,83.06
2023-04-05T05:10:11.778Z,82.55
2023-04-05T05:12:39.680Z,81.90
2023-04-05T05:15:07.327Z,81.02
2023-04-05T05:17:35.389Z,80.63
2023-04-05T05:20:11.333Z,79.89
2023-04-05T05:22:43.826Z,79.56
2023-04-05T05:25:12.630Z,79.02
2023-04-05T05:27:43.806Z,77.99
2023-04-05T05:30:11.638Z,77.63
2023-04-05T05:32:40.168Z,76.73
2023-04-05T05:35:11.208Z,75.99
2023-04-05T05:37:38.309Z,75.50
2023-04-05T05:40:05.743Z,75.23
2023-04-05T05:42:34.029Z,74.76
2023-04-05T05:45:05.857Z,74.39
2023-04-05T05:47:34.323Z,72.99
2023-04-05T05:50:01.859Z,72.06
2023-04-05T05:52:49.150Z,71.27
2023-04-05T05:55:16.176Z,70.86
2023-04-05T05:57:43.267Z,70.08
2023-04-05T06:00:10.777Z,69.82
2023-04-05T06:02:42.273Z,69.26
2023-04-05T06:05:09.757Z,68.84
2023-04-05T06:07:38.015Z,67.89
2023-04-05T06:10:06.361Z,67.14
2023-04-05T06:12:33.439Z,66.88
2023-04-05T06:15:01.539Z,66.69
2023-04-05T06:17:28.951Z,66.33
2023-04-05T06:19:55.993Z,64.25
2023-04-05T06:22:23.804Z,64.34
2023-04-05T06:24:59.775Z,64.32
2023-04-05T06:27:27.503Z,64.09
2023-04-05T06:29:56.821Z,63.43
2023-04-05T06:32:23.941Z,63.09
2023-04-05T06:34:53.874Z,63.14
2023-04-05T06:37:23.922Z,63.03
2023-04-05T06:39:57.007Z,62.90
2023-04-05T06:42:24.962Z,62.68
2023-04-05T06:44:59.385Z,62.37
2023-04-05T06:47:27.731Z,62.51
2023-04-05T06:49:54.679Z,61.36
2023-04-05T06:52:21.652Z,61.61
2023-04-05T06:54:48.579Z,61.23
2023-04-05T06:57:15.472Z,61.44
2023-04-05T06:59:42.429Z,61.55
2023-04-05T07:02:09.582Z,61.41
2023-04-05T07:04:37.239Z,61.59
2023-04-05T07:07:04.587Z,60.83
2023-04-05T07:09:50.456Z,60.36
2023-04-05T07:12:20.258Z,60.19
2023-04-05T07:14:47.519Z,59.14
2023-04-05T07:17:14.412Z,59.05
2023-04-05T07:19:41.623Z,58.46
2023-04-05T07:22:09.809Z,57.97
2023-04-05T07:24:36.815Z,57.45
2023-04-05T07:27:04.276Z,56.88
2023-04-05T07:29:38.335Z,57.04
2023-04-05T07:32:05.485Z,56.38
2023-04-05T07:34:32.547Z,56.34
2023-04-05T07:36:59.563Z,55.74
2023-04-05T07:39:27.623Z,54.70
2023-04-05T07:41:54.703Z,54.72
2023-04-05T07:44:40.693Z,55.09
2023-04-05T07:47:07.867Z,55.32
2023-04-05T07:49:38.198Z,54.62
2023-04-05T07:52:06.531Z,54.37
2023-04-05T07:54:33.942Z,53.25
2023-04-05T07:57:01.297Z,52.60
2023-04-05T07:59:28.396Z,52.31
2023-04-05T08:01:57.254Z,51.87
2023-04-05T08:04:29.178Z,51.44
2023-04-05T08:06:57.061Z,50.88
2023-04-05T08:09:23.983Z,49.74
2023-04-05T08:11:51.270Z,49.08
2023-04-05T08:14:18.357Z,48.47
2023-04-05T08:16:45.584Z,48.73
2023-04-05T08:19:15.526Z,48.13
2023-04-05T08:21:42.930Z,48.03
2023-04-05T08:24:09.943Z,47.72
2023-04-05T08:26:37.006Z,48.04
2023-04-05T08:29:04.114Z,46.95
2023-04-05T08:31:50.124Z,46.19
2023-04-05T08:34:20.190Z,46.04
2023-04-05T08:36:48.916Z,45.18
2023-04-05T08:39:16.060Z,44.77
2023-04-05T08:42:12.256Z,43.77
2023-04-05T08:47:23.823Z,42.00
2023-04-05T08:49:51.021Z,41.06
2023-04-05T08:52:18.780Z,41.04
2023-04-05T08:54:48.004Z,41.80
2023-04-05T08:57:16.434Z,40.81
2023-04-05T08:59:49.952Z,40.60
2023-04-05T09:02:19.940Z,39.74
2023-04-05T09:04:47.829Z,39.38
2023-04-05T09:07:15.584Z,39.44
2023-04-05T09:09:46.604Z,39.21
2023-04-05T09:12:16.786Z,38.46
2023-04-05T09:14:44.049Z,38.60
2023-04-05T09:17:13.686Z,39.16
2023-04-05T09:19:48.783Z,39.40
2023-04-05T09:22:21.481Z,38.90
2023-04-05T09:24:49.410Z,38.32
2023-04-05T09:27:23.999Z,37.99
2023-04-05T09:29:56.366Z,36.94
2023-04-05T09:32:29.527Z,36.35
2023-04-05T09:35:01.425Z,36.42
2023-04-05T09:37:55.290Z,37.06
2023-04-05T09:40:48.549Z,36.69
2023-04-05T09:43:37.636Z,35.88
2023-04-05T09:46:04.977Z,36.24
2023-04-05T09:48:49.523Z,35.82
2023-04-05T09:51:17.141Z,34.22
2023-04-05T09:54:05.210Z,33.92
2023-04-05T09:56:34.758Z,34.37
2023-04-05T09:59:12.322Z,34.62
2023-04-05T10:01:44.008Z,33.70
2023-04-05T10:04:11.425Z,33.85
2023-04-05T10:06:43.666Z,33.69
2023-04-05T10:09:11.878Z,33.96
2023-04-05T10:11:39.342Z,33.96
2023-04-05T10:14:09.595Z,34.88
2023-04-05T10:17:08.991Z,35.24
2023-04-05T10:20:09.563Z,33.67
2023-04-05T10:22:54.497Z,33.34
2023-04-05T10:25:33.656Z,33.19
2023-04-05T10:28:11.637Z,33.01
2023-04-05T10:30:46.114Z,32.79
2023-04-05T10:33:45.629Z,32.98
2023-04-05T10:36:40.425Z,33.19
2023-04-05T10:39:18.346Z,33.04
2023-04-05T10:41:50.881Z,31.87
2023-04-05T10:44:25.513Z,31.81
2023-04-05T10:46:54.953Z,31.94
2023-04-05T10:49:37.831Z,31.75
2023-04-05T10:52:04.901Z,31.50
2023-04-05T10:54:33.904Z,32.20
2023-04-05T10:57:09.666Z,31.99
2023-04-05T10:59:42.678Z,32.21
2023-04-05T11:02:10.819Z,31.95
2023-04-05T11:04:42.285Z,31.36
2023-04-05T11:07:21.749Z,31.86
2023-04-05T11:10:00.824Z,31.34
2023-04-05T11:12:46.790Z,31.32
2023-04-05T11:15:28.870Z,31.59
2023-04-05T11:18:33.215Z,30.89
2023-04-05T11:21:09.905Z,31.34
2023-04-05T11:24:07.304Z,31.20
2023-04-05T11:26:56.167Z,30.85
2023-04-05T11:29:52.258Z,30.42
2023-04-05T11:32:19.455Z,29.80
2023-04-05T11:35:02.628Z,30.05
2023-04-05T11:38:19.631Z,30.00
2023-04-05T11:40:48.167Z,29.64
2023-04-05T11:43:15.264Z,29.21
2023-04-05T11:45:48.717Z,28.99
2023-04-05T11:48:15.858Z,29.53
2023-04-05T11:50:43.072Z,29.04
2023-04-05T11:53:37.406Z,29.40
2023-04-05T11:56:10.156Z,29.15
2023-04-05T11:58:37.694Z,29.37
2023-04-05T12:01:14.608Z,29.28
2023-04-05T12:03:41.764Z,28.92
2023-04-05T12:06:27.859Z,29.35
2023-04-05T12:08:56.150Z,29.03
2023-04-05T12:11:25.856Z,28.76
2023-04-05T12:14:02.921Z,28.90
2023-04-05T12:16:31.889Z,28.04
2023-04-05T12:19:00.401Z,28.35
2023-04-05T12:21:30.675Z,27.54
2023-04-05T12:23:58.395Z,28.49
2023-04-05T12:26:26.446Z,28.63
2023-04-05T12:28:57.782Z,28.33
2023-04-05T12:31:40.011Z,28.26
2023-04-05T12:34:09.337Z,27.64
2023-04-05T12:36:37.075Z,27.12
2023-04-05T12:39:07.676Z,26.72
2023-04-05T12:41:37.734Z,26.45
2023-04-05T12:44:29.175Z,26.92
2023-04-05T12:47:02.329Z,27.16
2023-04-05T12:49:29.602Z,26.99
2023-04-05T12:52:03.057Z,27.47
2023-04-05T12:54:34.082Z,26.80
2023-04-05T12:57:04.528Z,26.91
2023-04-05T12:59:31.697Z,27.07
2023-04-05T13:02:00.754Z,27.26
2023-04-05T13:04:27.772Z,27.12
2023-04-05T13:06:58.896Z,27.27
2023-04-05T13:09:30.813Z,28.07
2023-04-05T13:15:19.913Z,27.97
2023-04-05T13:18:19.929Z,27.82
2023-04-05T13:24:43.105Z,27.57
2023-04-05T13:27:18.941Z,27.33
2023-04-05T13:30:04.330Z,27.09
2023-04-05T13:32:34.024Z,27.47
2023-04-05T13:35:02.038Z,27.84
2023-04-05T13:37:29.653Z,28.19
2023-04-05T13:39:56.694Z,26.88
2023-04-05T13:42:27.236Z,27.72
2023-04-05T13:44:54.453Z,27.76
2023-04-05T13:47:39.983Z,27.31
2023-04-05T13:50:07.590Z,26.56
2023-04-05T13:52:35.402Z,27.38
2023-04-05T13:55:03.791Z,27.72
2023-04-05T13:57:31.452Z,27.48
2023-04-05T13:59:58.650Z,27.71
2023-04-05T14:02:30.886Z,27.52
2023-04-05T14:05:01.444Z,26.81
2023-04-05T14:07:28.852Z,26.26
2023-04-05T14:09:59.420Z,27.19
2023-04-05T14:12:26.696Z,27.29
2023-04-05T14:14:56.521Z,27.17
2023-04-05T14:17:25.391Z,27.67
2023-04-05T14:19:55.538Z,27.80
2023-04-05T14:22:22.679Z,28.59
2023-04-05T14:24:50.367Z,28.93
2023-04-05T14:27:41.360Z,29.46
2023-04-05T14:30:11.210Z,29.23
2023-04-05T14:32:43.951Z,29.58
2023-04-05T14:35:11.483Z,29.43
2023-04-05T14:37:38.559Z,29.93
2023-04-05T14:40:08.855Z,30.39
2023-04-05T14:42:47.787Z,30.29
2023-04-05T14:45:16.723Z,31.10
2023-04-05T14:47:45.203Z,31.69
2023-04-05T14:50:13.956Z,32.42
2023-04-05T14:52:41.021Z,32.45
2023-04-05T14:55:08.465Z,31.94
2023-04-05T14:57:35.439Z,32.29
2023-04-05T15:00:02.972Z,32.54
2023-04-05T15:02:31.339Z,34.45
2023-04-05T15:05:01.450Z,36.68
2023-04-05T15:07:28.833Z,38.36
2023-04-05T15:09:55.943Z,39.23
2023-04-05T15:12:23.478Z,40.47
2023-04-05T15:14:54.547Z,41.34
2023-04-05T15:17:22.074Z,42.28
2023-04-05T15:19:49.142Z,42.79
2023-04-05T15:22:17.678Z,43.66
2023-04-05T15:24:44.720Z,44.55
2023-04-05T15:27:12.014Z,45.39
2023-04-05T15:29:42.060Z,46.15
2023-04-05T15:32:10.480Z,46.21
2023-04-05T15:34:40.448Z,47.11
2023-04-05T15:37:07.696Z,47.68
2023-04-05T15:39:37.103Z,48.28
2023-04-05T15:42:04.357Z,48.92
2023-04-05T15:44:31.392Z,49.65
2023-04-05T15:46:58.415Z,50.24
2023-04-05T15:49:25.563Z,50.71
2023-04-05T15:51:52.737Z,50.92
2023-04-05T15:54:21.157Z,51.10
2023-04-05T15:56:48.288Z,51.65
2023-04-05T15:59:15.569Z,52.03
2023-04-05T16:01:45.409Z,52.18
2023-04-05T16:04:12.616Z,52.59
2023-04-05T16:06:39.670Z,52.77
2023-04-05T16:09:06.770Z,53.53
2023-04-05T16:11:36.554Z,54.13
2023-04-05T16:14:06.450Z,54.00
2023-04-05T16:16:42.000Z,54.35
2023-04-05T16:19:17.062Z,55.22
2023-04-05T16:21:45.844Z,55.66
2023-04-05T16:24:12.870Z,56.02
2023-04-05T16:26:39.819Z,56.02
2023-04-05T16:29:07.316Z,56.08
2023-04-05T16:31:36.331Z,56.17
2023-04-05T16:34:03.556Z,56.21
2023-04-05T16:36:33.369Z,56.21
2023-04-05T16:39:00.675Z,56.56
2023-04-05T16:41:27.908Z,56.99
2023-04-05T16:43:55.575Z,57.38
2023-04-05T16:46:23.542Z,57.40
2023-04-05T16:48:52.316Z,57.88
2023-04-05T16:51:25.971Z,57.92
2023-04-05T16:53:53.864Z,58.02
2023-04-05T16:56:23.201Z,58.51
2023-04-05T16:58:51.666Z,58.84
2023-04-05T17:01:21.676Z,59.12
2023-04-05T17:03:49.326Z,59.17
2023-04-05T17:06:16.574Z,59.53
2023-04-05T17:08:46.496Z,59.67
2023-04-05T17:11:14.458Z,60.38
2023-04-05T17:13:42.186Z,60.50
2023-04-05T17:16:09.941Z,60.55
2023-04-05T17:18:37.060Z,60.77
2023-04-05T17:21:04.376Z,60.90
2023-04-05T17:23:31.569Z,60.91
2023-04-05T17:25:58.581Z,61.57
2023-04-05T17:28:27.281Z,61.65
2023-04-05T17:30:57.299Z,61.79
2023-04-05T17:33:24.409Z,62.27
2023-04-05T17:35:54.394Z,62.18
2023-04-05T17:38:21.450Z,62.38
2023-04-05T17:40:48.801Z,62.40
2023-04-05T17:43:18.052Z,62.75
2023-04-05T17:45:44.984Z,62.92
2023-04-05T17:48:12.038Z,63.19
2023-04-05T17:50:43.706Z,62.93
2023-04-05T17:53:11.372Z,62.78
2023-04-05T17:55:38.848Z,62.77
2023-04-05T17:58:08.413Z,62.85
2023-04-05T18:00:35.445Z,62.82
2023-04-05T18:03:07.514Z,62.53
2023-04-05T18:05:38.616Z,62.22
2023-04-05T18:08:05.768Z,61.27
2023-04-05T18:11:04.237Z,60.53
2023-04-05T18:13:32.253Z,59.91
2023-04-05T18:16:00.322Z,59.67
2023-04-05T18:18:28.113Z,59.47
2023-04-05T18:20:59.471Z,59.15
2023-04-05T18:23:27.300Z,59.06
2023-04-05T18:25:54.972Z,58.94
2023-04-05T18:28:23.631Z,59.10
2023-04-05T18:30:55.716Z,59.27
2023-04-05T18:33:22.990Z,59.43
2023-04-05T18:35:50.634Z,59.43
2023-04-05T18:38:18.318Z,59.56
2023-04-05T18:40:46.352Z,59.60
2023-04-05T18:43:13.700Z,59.51
2023-04-05T18:45:40.955Z,59.74
2023-04-05T18:48:15.921Z,60.03
2023-04-05T18:50:42.849Z,59.72
2023-04-05T18:53:10.076Z,60.09
2023-04-05T18:55:40.141Z,59.84
2023-04-05T18:58:07.152Z,60.09
2023-04-05T19:00:35.109Z,60.45
2023-04-05T19:03:02.291Z,60.48
2023-04-05T19:05:29.683Z,60.32
2023-04-05T19:07:56.751Z,60.58
2023-04-05T19:10:29.203Z,60.40
2023-04-05T19:12:59.446Z,60.70
2023-04-05T19:15:26.760Z,61.02
2023-04-05T19:17:53.924Z,61.14
2023-04-05T19:20:23.673Z,61.08
2023-04-05T19:22:50.793Z,61.31
2023-04-05T19:25:18.136Z,61.22
2023-04-05T19:27:45.077Z,61.68
2023-04-05T19:30:16.699Z,61.62
2023-04-05T19:32:43.842Z,61.64
2023-04-05T19:35:10.991Z,61.85
2023-04-05T19:37:38.148Z,61.86
2023-04-05T19:40:06.399Z,62.06
2023-04-05T19:42:33.345Z,62.13
2023-04-05T19:45:03.567Z,62.26
2023-04-05T19:47:31.553Z,62.30
2023-04-05T19:50:00.989Z,62.78
2023-04-05T20:04:54.877Z,63.81
2023-04-05T20:07:21.895Z,63.98
2023-04-05T20:09:52.547Z,64.21
2023-04-05T20:12:22.645Z,64.33
2023-04-05T20:14:50.733Z,64.49
2023-04-05T20:17:19.043Z,64.91
2023-04-05T20:19:57.751Z,64.79
2023-04-05T20:22:27.072Z,65.28
2023-04-05T20:24:54.156Z,65.57
2023-04-05T20:27:21.326Z,65.70
2023-04-05T20:29:48.424Z,65.85
2023-04-05T20:32:23.316Z,66.10
2023-04-05T20:34:50.477Z,66.04
2023-04-05T20:37:17.605Z,66.45
2023-04-05T20:39:44.556Z,66.65
2023-04-05T20:42:11.781Z,67.21
2023-04-05T20:44:38.790Z,67.35
2023-04-05T20:47:06.827Z,67.46
2023-04-05T20:49:41.318Z,67.48
2023-04-05T20:52:14.165Z,67.84
2023-04-05T20:54:44.277Z,68.18
2023-04-05T20:57:12.123Z,68.49
2023-04-05T20:59:39.232Z,68.70
2023-04-05T21:02:06.585Z,68.84
2023-04-05T21:04:40.142Z,69.19
2023-04-05T21:07:07.437Z,69.21
2023-04-05T21:09:34.697Z,69.56
2023-04-05T21:12:04.215Z,69.66
2023-04-05T21:14:31.210Z,69.98
2023-04-05T21:17:03.480Z,70.18
2023-04-05T21:19:30.782Z,70.73
2023-04-05T21:22:29.913Z,71.31
2023-04-05T21:24:59.880Z,71.75
2023-04-05T21:27:27.581Z,71.67
2023-04-05T21:29:54.639Z,71.78
2023-04-05T21:32:21.628Z,72.22
2023-04-05T21:34:48.688Z,72.38
2023-04-05T21:37:15.706Z,72.76
2023-04-05T21:39:42.878Z,73.07
2023-04-05T21:42:10.862Z,72.99
2023-04-05T21:44:37.796Z,73.33
2023-04-05T21:47:04.871Z,73.47
2023-04-05T21:49:31.854Z,73.91
2023-04-05T21:51:58.794Z,74.01
2023-04-05T21:54:25.856Z,74.29
2023-04-05T21:56:52.777Z,74.38
2023-04-05T21:59:19.785Z,74.62
2023-04-05T22:01:46.875Z,74.58
2023-04-05T22:04:13.830Z,75.06
2023-04-05T22:06:41.190Z,75.27
2023-04-05T22:09:08.267Z,75.48
2023-04-05T22:11:35.925Z,75.66
2023-04-05T22:14:03.411Z,75.37
2023-04-05T22:16:30.428Z,75.53
2023-04-05T22:18:57.413Z,75.94
2023-04-05T22:21:24.425Z,76.07
2023-04-05T22:23:51.657Z,75.96
2023-04-05T22:26:18.630Z,76.00
2023-04-05T22:28:45.603Z,76.13
2023-04-05T22:31:14.812Z,76.36
2023-04-05T22:33:41.926Z,76.29
2023-04-05T22:36:11.708Z,76.47
2023-04-05T22:38:38.786Z,76.37
2023-04-05T22:41:05.898Z,76.31
2023-04-05T22:43:33.255Z,76.50
2023-04-05T22:46:00.341Z,76.28
2023-04-05T22:48:27.640Z,76.31
2023-04-05T22:50:54.707Z,76.41
2023-04-05T22:53:22.604Z,76.41
2023-04-05T22:55:49.611Z,76.44
2023-04-05T22:58:17.426Z,76.19
2023-04-05T23:00:44.376Z,76.54
2023-04-05T23:03:11.471Z,76.50
2023-04-05T23:05:38.659Z,76.69
2023-04-05T23:08:05.942Z,76.59
2023-04-05T23:10:32.920Z,76.77
2023-04-05T23:12:59.923Z,76.70
2023-04-05T23:15:27.046Z,76.87
2023-04-05T23:17:54.238Z,76.80
2023-04-05T23:20:21.342Z,76.96
2023-04-05T23:22:48.432Z,76.80
2023-04-05T23:25:15.399Z,76.85
2023-04-05T23:27:42.457Z,76.98
2023-04-05T23:30:11.037Z,77.18
2023-04-05T23:32:38.157Z,77.09
2023-04-05T23:35:05.746Z,77.35
2023-04-05T23:37:32.667Z,77.27
2023-04-05T23:39:59.591Z,77.16
2023-04-05T23:42:26.678Z,77.36
2023-04-05T23:44:53.847Z,77.54
2023-04-05T23:47:20.900Z,77.30
2023-04-05T23:49:47.853Z,77.31
2023-04-05T23:52:14.845Z,77.11
2023-04-05T23:54:41.909Z,77.39
2023-04-05T23:57:08.869Z,77.44
2023-04-05T23:59:35.825Z,77.31
